sensor_id;sensor_type;location;lat;lon;timestamp;P1;durP1;ratioP1;P2;durP2;ratioP2
76417;SDS011;65250;47.602;19.002;2023-07-20T00:02:21;3.60;;;2.47;;
76417;SDS011;65250;47.602;19.002;2023-07-20T00:04:48;6.65;;;2.58;;
76417;SDS011;65250;47.602;19.002;2023-07-20T00:07:15;6.50;;;2.65;;
76417;SDS011;65250;47.602;19.002;2023-07-20T00:09:42;5.80;;;2.30;;
76417;SDS011;65250;47.602;19.002;2023-07-20T00:12:09;3.40;;;2.05;;
76417;SDS011;65250;47.602;19.002;2023-07-20T00:14:35;4.30;;;2.22;;
76417;SDS011;65250;47.602;19.002;2023-07-20T00:17:02;7.53;;;2.30;;
76417;SDS011;65250;47.602;19.002;2023-07-20T00:19:29;4.63;;;2.83;;
76417;SDS011;65250;47.602;19.002;2023-07-20T00:21:58;6.17;;;2.83;;
76417;SDS011;65250;47.602;19.002;2023-07-20T00:24:25;5.07;;;2.28;;
76417;SDS011;65250;47.602;19.002;2023-07-20T00:26:52;4.82;;;2.30;;
76417;SDS011;65250;47.602;19.002;2023-07-20T00:29:19;4.93;;;2.42;;
76417;SDS011;65250;47.602;19.002;2023-07-20T00:31:46;5.05;;;2.47;;
76417;SDS011;65250;47.602;19.002;2023-07-20T00:34:15;3.83;;;2.30;;
76417;SDS011;65250;47.602;19.002;2023-07-20T00:36:41;5.07;;;2.20;;
76417;SDS011;65250;47.602;19.002;2023-07-20T00:39:09;4.57;;;2.75;;
76417;SDS011;65250;47.602;19.002;2023-07-20T00:41:36;3.15;;;2.05;;
76417;SDS011;65250;47.602;19.002;2023-07-20T00:44:02;5.20;;;2.25;;
76417;SDS011;65250;47.602;19.002;2023-07-20T00:46:29;5.50;;;2.47;;
76417;SDS011;65250;47.602;19.002;2023-07-20T00:48:56;5.18;;;2.55;;
76417;SDS011;65250;47.602;19.002;2023-07-20T00:51:23;3.60;;;2.00;;
76417;SDS011;65250;47.602;19.002;2023-07-20T00:53:52;4.20;;;2.22;;
76417;SDS011;65250;47.602;19.002;2023-07-20T00:56:20;4.78;;;2.70;;
76417;SDS011;65250;47.602;19.002;2023-07-20T00:58:47;4.77;;;2.23;;
76417;SDS011;65250;47.602;19.002;2023-07-20T01:01:14;9.30;;;2.30;;
76417;SDS011;65250;47.602;19.002;2023-07-20T01:03:41;2.95;;;2.25;;
76417;SDS011;65250;47.602;19.002;2023-07-20T01:06:24;4.65;;;2.45;;
76417;SDS011;65250;47.602;19.002;2023-07-20T01:14:19;6.18;;;3.55;;
76417;SDS011;65250;47.602;19.002;2023-07-20T01:16:46;5.88;;;2.33;;
76417;SDS011;65250;47.602;19.002;2023-07-20T01:19:16;5.95;;;2.10;;
76417;SDS011;65250;47.602;19.002;2023-07-20T01:22:19;6.85;;;2.50;;
76417;SDS011;65250;47.602;19.002;2023-07-20T01:30:22;5.18;;;2.85;;
76417;SDS011;65250;47.602;19.002;2023-07-20T01:33:06;6.95;;;2.30;;
76417;SDS011;65250;47.602;19.002;2023-07-20T01:35:34;4.25;;;2.40;;
76417;SDS011;65250;47.602;19.002;2023-07-20T01:38:03;4.93;;;2.33;;
76417;SDS011;65250;47.602;19.002;2023-07-20T01:40:30;4.40;;;2.30;;
76417;SDS011;65250;47.602;19.002;2023-07-20T01:42:57;4.05;;;2.33;;
76417;SDS011;65250;47.602;19.002;2023-07-20T01:45:24;4.80;;;2.20;;
76417;SDS011;65250;47.602;19.002;2023-07-20T01:47:51;5.95;;;2.40;;
76417;SDS011;65250;47.602;19.002;2023-07-20T01:50:18;5.97;;;2.27;;
76417;SDS011;65250;47.602;19.002;2023-07-20T01:52:44;4.80;;;2.33;;
76417;SDS011;65250;47.602;19.002;2023-07-20T01:55:11;6.07;;;2.53;;
76417;SDS011;65250;47.602;19.002;2023-07-20T01:57:38;4.38;;;2.40;;
76417;SDS011;65250;47.602;19.002;2023-07-20T02:00:06;4.18;;;2.38;;
76417;SDS011;65250;47.602;19.002;2023-07-20T02:02:35;4.37;;;2.23;;
76417;SDS011;65250;47.602;19.002;2023-07-20T02:05:02;9.48;;;2.83;;
76417;SDS011;65250;47.602;19.002;2023-07-20T02:07:29;3.65;;;1.90;;
76417;SDS011;65250;47.602;19.002;2023-07-20T02:09:55;5.72;;;1.95;;
76417;SDS011;65250;47.602;19.002;2023-07-20T02:12:22;4.82;;;2.33;;
76417;SDS011;65250;47.602;19.002;2023-07-20T02:14:49;5.00;;;2.30;;
76417;SDS011;65250;47.602;19.002;2023-07-20T02:17:17;4.00;;;2.15;;
76417;SDS011;65250;47.602;19.002;2023-07-20T02:19:44;4.40;;;2.17;;
76417;SDS011;65250;47.602;19.002;2023-07-20T02:22:11;2.83;;;2.00;;
76417;SDS011;65250;47.602;19.002;2023-07-20T02:24:38;6.20;;;2.17;;
76417;SDS011;65250;47.602;19.002;2023-07-20T02:27:05;4.40;;;2.53;;
76417;SDS011;65250;47.602;19.002;2023-07-20T02:29:33;6.35;;;2.28;;
76417;SDS011;65250;47.602;19.002;2023-07-20T02:32:00;4.43;;;2.40;;
76417;SDS011;65250;47.602;19.002;2023-07-20T02:34:27;6.13;;;2.50;;
76417;SDS011;65250;47.602;19.002;2023-07-20T02:36:54;4.93;;;2.25;;
76417;SDS011;65250;47.602;19.002;2023-07-20T02:39:23;4.77;;;2.20;;
76417;SDS011;65250;47.602;19.002;2023-07-20T02:41:49;3.53;;;2.35;;
76417;SDS011;65250;47.602;19.002;2023-07-20T02:44:16;4.20;;;2.15;;
76417;SDS011;65250;47.602;19.002;2023-07-20T02:46:43;4.63;;;2.20;;
76417;SDS011;65250;47.602;19.002;2023-07-20T02:49:10;5.40;;;2.65;;
76417;SDS011;65250;47.602;19.002;2023-07-20T02:51:37;6.27;;;2.13;;
76417;SDS011;65250;47.602;19.002;2023-07-20T02:54:04;4.35;;;2.40;;
76417;SDS011;65250;47.602;19.002;2023-07-20T02:56:30;6.00;;;2.25;;
76417;SDS011;65250;47.602;19.002;2023-07-20T02:58:57;7.07;;;2.20;;
76417;SDS011;65250;47.602;19.002;2023-07-20T03:01:24;4.38;;;2.30;;
76417;SDS011;65250;47.602;19.002;2023-07-20T03:03:51;4.93;;;2.30;;
76417;SDS011;65250;47.602;19.002;2023-07-20T03:06:18;4.22;;;2.15;;
76417;SDS011;65250;47.602;19.002;2023-07-20T03:08:45;5.65;;;2.50;;
76417;SDS011;65250;47.602;19.002;2023-07-20T03:11:14;4.88;;;2.50;;
76417;SDS011;65250;47.602;19.002;2023-07-20T03:13:44;5.75;;;3.65;;
76417;SDS011;65250;47.602;19.002;2023-07-20T03:16:12;3.90;;;2.30;;
76417;SDS011;65250;47.602;19.002;2023-07-20T03:18:41;4.68;;;2.42;;
76417;SDS011;65250;47.602;19.002;2023-07-20T03:21:09;4.55;;;1.90;;
76417;SDS011;65250;47.602;19.002;2023-07-20T03:23:38;4.22;;;2.30;;
76417;SDS011;65250;47.602;19.002;2023-07-20T03:26:05;4.15;;;2.38;;
76417;SDS011;65250;47.602;19.002;2023-07-20T03:28:35;3.70;;;2.37;;
76417;SDS011;65250;47.602;19.002;2023-07-20T03:31:02;5.28;;;2.60;;
76417;SDS011;65250;47.602;19.002;2023-07-20T03:33:31;4.22;;;2.60;;
76417;SDS011;65250;47.602;19.002;2023-07-20T03:35:58;5.65;;;2.60;;
76417;SDS011;65250;47.602;19.002;2023-07-20T03:38:26;5.55;;;2.60;;
76417;SDS011;65250;47.602;19.002;2023-07-20T03:40:54;6.50;;;2.30;;
76417;SDS011;65250;47.602;19.002;2023-07-20T03:43:25;4.30;;;2.30;;
76417;SDS011;65250;47.602;19.002;2023-07-20T03:45:53;4.82;;;2.53;;
76417;SDS011;65250;47.602;19.002;2023-07-20T03:48:21;3.30;;;1.95;;
76417;SDS011;65250;47.602;19.002;2023-07-20T03:50:49;5.05;;;2.10;;
76417;SDS011;65250;47.602;19.002;2023-07-20T03:53:17;5.90;;;2.63;;
76417;SDS011;65250;47.602;19.002;2023-07-20T03:55:47;7.07;;;2.90;;
76417;SDS011;65250;47.602;19.002;2023-07-20T03:58:17;5.10;;;2.25;;
76417;SDS011;65250;47.602;19.002;2023-07-20T04:00:47;3.42;;;2.42;;
76417;SDS011;65250;47.602;19.002;2023-07-20T04:03:14;3.25;;;2.53;;
76417;SDS011;65250;47.602;19.002;2023-07-20T04:05:42;4.80;;;2.33;;
76417;SDS011;65250;47.602;19.002;2023-07-20T04:08:09;3.90;;;2.45;;
76417;SDS011;65250;47.602;19.002;2023-07-20T04:10:38;4.43;;;2.92;;
76417;SDS011;65250;47.602;19.002;2023-07-20T04:13:05;4.53;;;2.33;;
76417;SDS011;65250;47.602;19.002;2023-07-20T04:15:32;4.80;;;2.30;;
76417;SDS011;65250;47.602;19.002;2023-07-20T04:17:59;2.97;;;2.30;;
76417;SDS011;65250;47.602;19.002;2023-07-20T04:20:27;4.47;;;2.72;;
76417;SDS011;65250;47.602;19.002;2023-07-20T04:22:54;4.63;;;2.53;;
76417;SDS011;65250;47.602;19.002;2023-07-20T04:25:21;4.65;;;2.50;;
76417;SDS011;65250;47.602;19.002;2023-07-20T04:27:48;4.82;;;2.60;;
76417;SDS011;65250;47.602;19.002;2023-07-20T04:30:16;3.20;;;2.30;;
76417;SDS011;65250;47.602;19.002;2023-07-20T04:32:46;4.50;;;2.40;;
76417;SDS011;65250;47.602;19.002;2023-07-20T04:35:17;5.57;;;3.38;;
76417;SDS011;65250;47.602;19.002;2023-07-20T04:38:04;6.53;;;2.72;;
76417;SDS011;65250;47.602;19.002;2023-07-20T04:40:31;8.48;;;2.88;;
76417;SDS011;65250;47.602;19.002;2023-07-20T04:42:58;6.60;;;2.60;;
76417;SDS011;65250;47.602;19.002;2023-07-20T04:45:25;4.65;;;2.60;;
76417;SDS011;65250;47.602;19.002;2023-07-20T04:47:51;5.63;;;2.55;;
76417;SDS011;65250;47.602;19.002;2023-07-20T04:50:18;4.28;;;2.30;;
76417;SDS011;65250;47.602;19.002;2023-07-20T04:52:45;5.28;;;2.33;;
76417;SDS011;65250;47.602;19.002;2023-07-20T04:55:14;5.27;;;2.67;;
76417;SDS011;65250;47.602;19.002;2023-07-20T04:57:41;7.88;;;2.45;;
76417;SDS011;65250;47.602;19.002;2023-07-20T05:00:08;4.60;;;2.72;;
76417;SDS011;65250;47.602;19.002;2023-07-20T05:02:37;6.75;;;2.70;;
76417;SDS011;65250;47.602;19.002;2023-07-20T05:05:04;6.40;;;2.40;;
76417;SDS011;65250;47.602;19.002;2023-07-20T05:07:32;7.17;;;3.77;;
76417;SDS011;65250;47.602;19.002;2023-07-20T05:09:59;7.18;;;3.15;;
76417;SDS011;65250;47.602;19.002;2023-07-20T05:12:25;4.40;;;2.85;;
76417;SDS011;65250;47.602;19.002;2023-07-20T05:14:52;6.38;;;3.10;;
76417;SDS011;65250;47.602;19.002;2023-07-20T05:17:19;8.73;;;2.75;;
76417;SDS011;65250;47.602;19.002;2023-07-20T05:19:46;9.60;;;2.73;;
76417;SDS011;65250;47.602;19.002;2023-07-20T05:22:13;5.18;;;3.00;;
76417;SDS011;65250;47.602;19.002;2023-07-20T05:24:40;4.43;;;2.70;;
76417;SDS011;65250;47.602;19.002;2023-07-20T05:27:07;5.15;;;3.65;;
76417;SDS011;65250;47.602;19.002;2023-07-20T05:29:34;6.28;;;2.95;;
76417;SDS011;65250;47.602;19.002;2023-07-20T05:32:00;6.20;;;2.70;;
76417;SDS011;65250;47.602;19.002;2023-07-20T05:34:27;5.43;;;2.53;;
76417;SDS011;65250;47.602;19.002;2023-07-20T05:36:54;5.15;;;3.10;;
76417;SDS011;65250;47.602;19.002;2023-07-20T05:39:21;4.93;;;2.60;;
76417;SDS011;65250;47.602;19.002;2023-07-20T05:41:48;4.70;;;2.70;;
76417;SDS011;65250;47.602;19.002;2023-07-20T05:44:15;5.77;;;2.57;;
76417;SDS011;65250;47.602;19.002;2023-07-20T05:46:42;6.45;;;2.85;;
76417;SDS011;65250;47.602;19.002;2023-07-20T05:49:23;4.82;;;2.75;;
76417;SDS011;65250;47.602;19.002;2023-07-20T05:51:50;5.18;;;2.97;;
76417;SDS011;65250;47.602;19.002;2023-07-20T05:54:17;5.47;;;2.83;;
76417;SDS011;65250;47.602;19.002;2023-07-20T05:56:43;4.63;;;2.50;;
76417;SDS011;65250;47.602;19.002;2023-07-20T05:59:10;5.30;;;3.25;;
76417;SDS011;65250;47.602;19.002;2023-07-20T06:01:37;5.80;;;3.53;;
76417;SDS011;65250;47.602;19.002;2023-07-20T06:04:04;5.47;;;2.88;;
76417;SDS011;65250;47.602;19.002;2023-07-20T06:06:31;3.85;;;3.15;;
76417;SDS011;65250;47.602;19.002;2023-07-20T06:08:57;3.70;;;2.80;;
76417;SDS011;65250;47.602;19.002;2023-07-20T06:11:24;12.18;;;2.92;;
76417;SDS011;65250;47.602;19.002;2023-07-20T06:13:51;7.45;;;3.10;;
76417;SDS011;65250;47.602;19.002;2023-07-20T06:16:18;4.10;;;3.20;;
76417;SDS011;65250;47.602;19.002;2023-07-20T06:18:45;3.35;;;2.75;;
76417;SDS011;65250;47.602;19.002;2023-07-20T06:21:12;4.53;;;3.10;;
76417;SDS011;65250;47.602;19.002;2023-07-20T06:23:39;9.55;;;3.13;;
76417;SDS011;65250;47.602;19.002;2023-07-20T06:26:06;5.97;;;3.30;;
76417;SDS011;65250;47.602;19.002;2023-07-20T06:28:33;5.45;;;3.40;;
76417;SDS011;65250;47.602;19.002;2023-07-20T06:31:00;5.45;;;3.22;;
76417;SDS011;65250;47.602;19.002;2023-07-20T06:33:28;8.70;;;3.60;;
76417;SDS011;65250;47.602;19.002;2023-07-20T06:35:55;5.13;;;3.28;;
76417;SDS011;65250;47.602;19.002;2023-07-20T06:38:23;9.82;;;3.42;;
76417;SDS011;65250;47.602;19.002;2023-07-20T06:40:53;7.22;;;3.10;;
76417;SDS011;65250;47.602;19.002;2023-07-20T06:43:19;8.98;;;3.50;;
76417;SDS011;65250;47.602;19.002;2023-07-20T06:45:52;4.97;;;3.20;;
76417;SDS011;65250;47.602;19.002;2023-07-20T06:48:22;5.28;;;3.15;;
76417;SDS011;65250;47.602;19.002;2023-07-20T06:50:48;6.03;;;3.17;;
76417;SDS011;65250;47.602;19.002;2023-07-20T06:53:15;4.43;;;3.20;;
76417;SDS011;65250;47.602;19.002;2023-07-20T06:55:42;6.25;;;3.30;;
76417;SDS011;65250;47.602;19.002;2023-07-20T06:58:09;5.10;;;2.93;;
76417;SDS011;65250;47.602;19.002;2023-07-20T07:00:37;4.45;;;3.22;;
76417;SDS011;65250;47.602;19.002;2023-07-20T07:03:04;6.03;;;3.05;;
76417;SDS011;65250;47.602;19.002;2023-07-20T07:05:31;8.23;;;3.40;;
76417;SDS011;65250;47.602;19.002;2023-07-20T07:08:01;8.55;;;3.50;;
76417;SDS011;65250;47.602;19.002;2023-07-20T07:10:27;5.73;;;3.10;;
76417;SDS011;65250;47.602;19.002;2023-07-20T07:12:54;7.85;;;3.70;;
76417;SDS011;65250;47.602;19.002;2023-07-20T07:15:21;5.78;;;3.17;;
76417;SDS011;65250;47.602;19.002;2023-07-20T07:17:48;6.68;;;3.33;;
76417;SDS011;65250;47.602;19.002;2023-07-20T07:20:15;5.60;;;3.00;;
76417;SDS011;65250;47.602;19.002;2023-07-20T07:22:44;4.10;;;3.30;;
76417;SDS011;65250;47.602;19.002;2023-07-20T07:25:12;7.05;;;3.10;;
76417;SDS011;65250;47.602;19.002;2023-07-20T07:27:39;5.40;;;3.58;;
76417;SDS011;65250;47.602;19.002;2023-07-20T07:30:06;5.15;;;3.53;;
76417;SDS011;65250;47.602;19.002;2023-07-20T07:32:33;5.22;;;3.08;;
76417;SDS011;65250;47.602;19.002;2023-07-20T07:35:00;7.97;;;3.20;;
76417;SDS011;65250;47.602;19.002;2023-07-20T07:37:27;8.55;;;3.50;;
76417;SDS011;65250;47.602;19.002;2023-07-20T07:39:54;6.82;;;3.83;;
76417;SDS011;65250;47.602;19.002;2023-07-20T07:42:21;6.88;;;3.00;;
76417;SDS011;65250;47.602;19.002;2023-07-20T07:44:50;9.05;;;3.30;;
76417;SDS011;65250;47.602;19.002;2023-07-20T07:47:17;5.10;;;3.10;;
76417;SDS011;65250;47.602;19.002;2023-07-20T07:49:44;4.03;;;3.08;;
76417;SDS011;65250;47.602;19.002;2023-07-20T07:52:12;6.45;;;2.92;;
76417;SDS011;65250;47.602;19.002;2023-07-20T07:54:40;5.55;;;2.72;;
76417;SDS011;65250;47.602;19.002;2023-07-20T07:57:07;3.97;;;2.60;;
76417;SDS011;65250;47.602;19.002;2023-07-20T07:59:34;6.00;;;3.03;;
76417;SDS011;65250;47.602;19.002;2023-07-20T08:02:04;4.60;;;2.75;;
76417;SDS011;65250;47.602;19.002;2023-07-20T08:04:31;6.30;;;3.33;;
76417;SDS011;65250;47.602;19.002;2023-07-20T08:06:59;9.27;;;3.38;;
76417;SDS011;65250;47.602;19.002;2023-07-20T08:09:26;6.45;;;3.08;;
76417;SDS011;65250;47.602;19.002;2023-07-20T08:11:53;4.70;;;3.10;;
76417;SDS011;65250;47.602;19.002;2023-07-20T08:14:19;6.47;;;3.05;;
76417;SDS011;65250;47.602;19.002;2023-07-20T08:16:46;4.50;;;2.95;;
76417;SDS011;65250;47.602;19.002;2023-07-20T08:19:14;3.75;;;2.88;;
76417;SDS011;65250;47.602;19.002;2023-07-20T08:21:41;5.65;;;2.53;;
76417;SDS011;65250;47.602;19.002;2023-07-20T08:24:07;5.47;;;3.63;;
76417;SDS011;65250;47.602;19.002;2023-07-20T08:26:34;5.00;;;3.03;;
76417;SDS011;65250;47.602;19.002;2023-07-20T08:29:01;4.22;;;2.70;;
76417;SDS011;65250;47.602;19.002;2023-07-20T08:31:28;5.03;;;2.88;;
76417;SDS011;65250;47.602;19.002;2023-07-20T08:33:55;6.00;;;2.67;;
76417;SDS011;65250;47.602;19.002;2023-07-20T08:36:23;5.23;;;2.60;;
76417;SDS011;65250;47.602;19.002;2023-07-20T08:38:50;5.18;;;2.20;;
76417;SDS011;65250;47.602;19.002;2023-07-20T08:41:18;3.45;;;2.40;;
76417;SDS011;65250;47.602;19.002;2023-07-20T08:43:45;5.85;;;2.63;;
76417;SDS011;65250;47.602;19.002;2023-07-20T08:46:13;6.38;;;2.22;;
76417;SDS011;65250;47.602;19.002;2023-07-20T08:48:41;4.67;;;2.60;;
76417;SDS011;65250;47.602;19.002;2023-07-20T08:51:08;7.00;;;2.60;;
76417;SDS011;65250;47.602;19.002;2023-07-20T08:53:37;4.38;;;2.38;;
76417;SDS011;65250;47.602;19.002;2023-07-20T08:56:03;4.18;;;2.50;;
76417;SDS011;65250;47.602;19.002;2023-07-20T08:58:31;3.53;;;2.20;;
76417;SDS011;65250;47.602;19.002;2023-07-20T09:00:57;5.23;;;2.97;;
76417;SDS011;65250;47.602;19.002;2023-07-20T09:03:25;7.10;;;2.80;;
76417;SDS011;65250;47.602;19.002;2023-07-20T09:05:52;4.32;;;2.35;;
76417;SDS011;65250;47.602;19.002;2023-07-20T09:08:20;3.28;;;2.67;;
76417;SDS011;65250;47.602;19.002;2023-07-20T09:10:47;3.33;;;2.50;;
76417;SDS011;65250;47.602;19.002;2023-07-20T09:13:14;18.53;;;3.67;;
76417;SDS011;65250;47.602;19.002;2023-07-20T09:15:52;11.77;;;3.17;;
76417;SDS011;65250;47.602;19.002;2023-07-20T09:18:38;5.68;;;2.78;;
76417;SDS011;65250;47.602;19.002;2023-07-20T09:21:05;4.05;;;2.58;;
76417;SDS011;65250;47.602;19.002;2023-07-20T09:23:33;6.82;;;3.00;;
76417;SDS011;65250;47.602;19.002;2023-07-20T09:26:00;7.53;;;2.43;;
76417;SDS011;65250;47.602;19.002;2023-07-20T09:28:28;3.47;;;2.60;;
76417;SDS011;65250;47.602;19.002;2023-07-20T09:30:55;4.00;;;3.00;;
76417;SDS011;65250;47.602;19.002;2023-07-20T09:33:23;4.57;;;2.28;;
76417;SDS011;65250;47.602;19.002;2023-07-20T09:35:54;4.13;;;2.80;;
76417;SDS011;65250;47.602;19.002;2023-07-20T09:38:24;3.50;;;2.73;;
76417;SDS011;65250;47.602;19.002;2023-07-20T09:40:52;4.85;;;2.53;;
76417;SDS011;65250;47.602;19.002;2023-07-20T09:43:21;2.88;;;2.50;;
76417;SDS011;65250;47.602;19.002;2023-07-20T09:45:51;5.90;;;3.22;;
76417;SDS011;65250;47.602;19.002;2023-07-20T09:48:24;5.00;;;2.95;;
76417;SDS011;65250;47.602;19.002;2023-07-20T09:50:55;4.83;;;2.50;;
76417;SDS011;65250;47.602;19.002;2023-07-20T09:53:22;4.90;;;2.47;;
76417;SDS011;65250;47.602;19.002;2023-07-20T09:55:51;3.63;;;2.72;;
76417;SDS011;65250;47.602;19.002;2023-07-20T09:58:18;5.80;;;2.78;;
76417;SDS011;65250;47.602;19.002;2023-07-20T10:00:45;8.77;;;2.80;;
76417;SDS011;65250;47.602;19.002;2023-07-20T10:03:21;3.13;;;2.40;;
76417;SDS011;65250;47.602;19.002;2023-07-20T10:05:56;4.50;;;2.65;;
76417;SDS011;65250;47.602;19.002;2023-07-20T10:08:25;4.28;;;2.78;;
76417;SDS011;65250;47.602;19.002;2023-07-20T10:10:57;8.07;;;2.95;;
76417;SDS011;65250;47.602;19.002;2023-07-20T10:13:26;5.35;;;2.70;;
76417;SDS011;65250;47.602;19.002;2023-07-20T10:15:55;5.13;;;2.73;;
76417;SDS011;65250;47.602;19.002;2023-07-20T10:18:27;8.45;;;2.72;;
76417;SDS011;65250;47.602;19.002;2023-07-20T10:20:56;8.45;;;2.85;;
76417;SDS011;65250;47.602;19.002;2023-07-20T10:23:26;5.13;;;3.05;;
76417;SDS011;65250;47.602;19.002;2023-07-20T10:25:55;6.05;;;2.90;;
76417;SDS011;65250;47.602;19.002;2023-07-20T10:28:23;5.40;;;3.07;;
76417;SDS011;65250;47.602;19.002;2023-07-20T10:30:50;5.80;;;3.10;;
76417;SDS011;65250;47.602;19.002;2023-07-20T10:33:16;3.40;;;3.10;;
76417;SDS011;65250;47.602;19.002;2023-07-20T10:35:50;7.10;;;2.72;;
76417;SDS011;65250;47.602;19.002;2023-07-20T10:38:37;5.88;;;3.30;;
76417;SDS011;65250;47.602;19.002;2023-07-20T10:41:18;5.63;;;2.90;;
76417;SDS011;65250;47.602;19.002;2023-07-20T10:43:47;7.05;;;3.50;;
76417;SDS011;65250;47.602;19.002;2023-07-20T10:46:14;6.50;;;2.90;;
76417;SDS011;65250;47.602;19.002;2023-07-20T10:49:00;4.28;;;3.22;;
76417;SDS011;65250;47.602;19.002;2023-07-20T10:51:29;6.40;;;3.42;;
76417;SDS011;65250;47.602;19.002;2023-07-20T10:53:56;4.57;;;3.10;;
76417;SDS011;65250;47.602;19.002;2023-07-20T10:56:26;9.27;;;3.58;;
76417;SDS011;65250;47.602;19.002;2023-07-20T10:58:59;5.55;;;3.50;;
76417;SDS011;65250;47.602;19.002;2023-07-20T11:01:30;4.47;;;2.83;;
76417;SDS011;65250;47.602;19.002;2023-07-20T11:04:04;5.78;;;2.90;;
76417;SDS011;65250;47.602;19.002;2023-07-20T11:06:34;5.17;;;3.33;;
76417;SDS011;65250;47.602;19.002;2023-07-20T11:09:08;6.90;;;3.20;;
76417;SDS011;65250;47.602;19.002;2023-07-20T11:11:44;7.30;;;3.50;;
76417;SDS011;65250;47.602;19.002;2023-07-20T11:14:23;4.40;;;3.40;;
76417;SDS011;65250;47.602;19.002;2023-07-20T11:16:52;4.95;;;4.18;;
76417;SDS011;65250;47.602;19.002;2023-07-20T11:19:22;6.77;;;3.97;;
76417;SDS011;65250;47.602;19.002;2023-07-20T11:21:54;4.63;;;4.22;;
76417;SDS011;65250;47.602;19.002;2023-07-20T11:24:29;5.05;;;4.68;;
76417;SDS011;65250;47.602;19.002;2023-07-20T11:26:56;4.70;;;4.30;;
76417;SDS011;65250;47.602;19.002;2023-07-20T11:29:23;8.32;;;4.32;;
76417;SDS011;65250;47.602;19.002;2023-07-20T11:31:59;6.47;;;4.93;;
76417;SDS011;65250;47.602;19.002;2023-07-20T11:34:29;5.43;;;4.93;;
76417;SDS011;65250;47.602;19.002;2023-07-20T11:36:56;5.22;;;4.75;;
76417;SDS011;65250;47.602;19.002;2023-07-20T11:39:26;5.50;;;5.00;;
76417;SDS011;65250;47.602;19.002;2023-07-20T11:41:57;5.28;;;4.97;;
76417;SDS011;65250;47.602;19.002;2023-07-20T11:44:25;5.80;;;5.30;;
76417;SDS011;65250;47.602;19.002;2023-07-20T11:47:00;6.93;;;5.95;;
76417;SDS011;65250;47.602;19.002;2023-07-20T11:49:34;5.60;;;5.18;;
76417;SDS011;65250;47.602;19.002;2023-07-20T11:52:06;6.25;;;5.90;;
76417;SDS011;65250;47.602;19.002;2023-07-20T11:54:34;6.82;;;6.07;;
76417;SDS011;65250;47.602;19.002;2023-07-20T11:57:02;6.47;;;5.97;;
76417;SDS011;65250;47.602;19.002;2023-07-20T11:59:30;6.03;;;5.13;;
76417;SDS011;65250;47.602;19.002;2023-07-20T12:02:01;5.28;;;4.88;;
76417;SDS011;65250;47.602;19.002;2023-07-20T12:04:32;7.10;;;6.50;;
76417;SDS011;65250;47.602;19.002;2023-07-20T12:06:59;6.63;;;6.22;;
76417;SDS011;65250;47.602;19.002;2023-07-20T12:09:26;7.93;;;7.10;;
76417;SDS011;65250;47.602;19.002;2023-07-20T12:12:11;7.68;;;7.18;;
76417;SDS011;65250;47.602;19.002;2023-07-20T12:14:38;9.15;;;7.68;;
76417;SDS011;65250;47.602;19.002;2023-07-20T12:17:07;8.00;;;7.25;;
76417;SDS011;65250;47.602;19.002;2023-07-20T12:19:37;7.85;;;7.30;;
76417;SDS011;65250;47.602;19.002;2023-07-20T12:22:05;9.35;;;8.05;;
76417;SDS011;65250;47.602;19.002;2023-07-20T12:24:32;8.88;;;8.10;;
76417;SDS011;65250;47.602;19.002;2023-07-20T12:26:59;7.85;;;7.35;;
76417;SDS011;65250;47.602;19.002;2023-07-20T12:29:26;9.02;;;8.15;;
76417;SDS011;65250;47.602;19.002;2023-07-20T12:31:53;9.45;;;8.75;;
76417;SDS011;65250;47.602;19.002;2023-07-20T12:34:20;8.25;;;7.68;;
76417;SDS011;65250;47.602;19.002;2023-07-20T12:36:46;8.73;;;8.23;;
76417;SDS011;65250;47.602;19.002;2023-07-20T12:39:13;9.18;;;8.50;;
76417;SDS011;65250;47.602;19.002;2023-07-20T12:41:40;9.23;;;8.35;;
76417;SDS011;65250;47.602;19.002;2023-07-20T12:44:07;9.18;;;8.48;;
76417;SDS011;65250;47.602;19.002;2023-07-20T12:46:34;10.05;;;9.35;;
76417;SDS011;65250;47.602;19.002;2023-07-20T12:49:03;10.73;;;9.57;;
76417;SDS011;65250;47.602;19.002;2023-07-20T12:51:30;9.05;;;8.10;;
76417;SDS011;65250;47.602;19.002;2023-07-20T12:53:57;9.88;;;9.07;;
76417;SDS011;65250;47.602;19.002;2023-07-20T12:56:24;9.63;;;9.07;;
76417;SDS011;65250;47.602;19.002;2023-07-20T12:58:53;11.07;;;10.13;;
76417;SDS011;65250;47.602;19.002;2023-07-20T13:01:20;9.57;;;8.98;;
76417;SDS011;65250;47.602;19.002;2023-07-20T13:03:47;9.93;;;9.32;;
76417;SDS011;65250;47.602;19.002;2023-07-20T13:06:17;10.10;;;9.30;;
76417;SDS011;65250;47.602;19.002;2023-07-20T13:08:47;10.00;;;9.20;;
76417;SDS011;65250;47.602;19.002;2023-07-20T13:11:13;10.07;;;9.43;;
76417;SDS011;65250;47.602;19.002;2023-07-20T13:13:40;9.57;;;8.88;;
76417;SDS011;65250;47.602;19.002;2023-07-20T13:16:07;9.63;;;9.02;;
76417;SDS011;65250;47.602;19.002;2023-07-20T13:18:34;10.98;;;10.18;;
76417;SDS011;65250;47.602;19.002;2023-07-20T13:21:01;10.63;;;9.90;;
76417;SDS011;65250;47.602;19.002;2023-07-20T13:23:28;10.73;;;10.13;;
76417;SDS011;65250;47.602;19.002;2023-07-20T13:25:55;10.38;;;9.77;;
76417;SDS011;65250;47.602;19.002;2023-07-20T13:28:22;11.25;;;10.55;;
76417;SDS011;65250;47.602;19.002;2023-07-20T13:30:48;11.27;;;10.48;;
76417;SDS011;65250;47.602;19.002;2023-07-20T13:33:15;11.73;;;11.00;;
76417;SDS011;65250;47.602;19.002;2023-07-20T13:35:44;11.65;;;10.77;;
76417;SDS011;65250;47.602;19.002;2023-07-20T13:38:13;12.13;;;11.07;;
76417;SDS011;65250;47.602;19.002;2023-07-20T13:40:40;11.20;;;10.50;;
76417;SDS011;65250;47.602;19.002;2023-07-20T13:43:08;11.55;;;10.95;;
76417;SDS011;65250;47.602;19.002;2023-07-20T13:45:35;12.63;;;11.70;;
76417;SDS011;65250;47.602;19.002;2023-07-20T13:48:02;12.75;;;11.98;;
76417;SDS011;65250;47.602;19.002;2023-07-20T13:50:32;11.90;;;11.30;;
76417;SDS011;65250;47.602;19.002;2023-07-20T13:53:02;12.80;;;12.20;;
76417;SDS011;65250;47.602;19.002;2023-07-20T13:55:32;12.40;;;11.52;;
76417;SDS011;65250;47.602;19.002;2023-07-20T13:58:03;14.03;;;13.13;;
76417;SDS011;65250;47.602;19.002;2023-07-20T14:00:30;13.07;;;12.02;;
76417;SDS011;65250;47.602;19.002;2023-07-20T14:03:00;12.75;;;11.85;;
76417;SDS011;65250;47.602;19.002;2023-07-20T14:05:30;12.60;;;11.63;;
76417;SDS011;65250;47.602;19.002;2023-07-20T14:08:00;12.55;;;11.77;;
76417;SDS011;65250;47.602;19.002;2023-07-20T14:10:26;13.00;;;12.02;;
76417;SDS011;65250;47.602;19.002;2023-07-20T14:12:53;12.15;;;11.45;;
76417;SDS011;65250;47.602;19.002;2023-07-20T14:15:20;13.15;;;12.23;;
76417;SDS011;65250;47.602;19.002;2023-07-20T14:17:47;12.52;;;11.52;;
76417;SDS011;65250;47.602;19.002;2023-07-20T14:20:13;13.05;;;12.15;;
76417;SDS011;65250;47.602;19.002;2023-07-20T14:22:43;12.90;;;12.10;;
76417;SDS011;65250;47.602;19.002;2023-07-20T14:25:11;13.27;;;12.27;;
76417;SDS011;65250;47.602;19.002;2023-07-20T14:27:38;14.68;;;13.40;;
76417;SDS011;65250;47.602;19.002;2023-07-20T14:30:05;13.70;;;12.82;;
76417;SDS011;65250;47.602;19.002;2023-07-20T14:32:32;13.82;;;12.65;;
76417;SDS011;65250;47.602;19.002;2023-07-20T14:35:00;14.23;;;13.43;;
76417;SDS011;65250;47.602;19.002;2023-07-20T14:37:27;12.93;;;12.07;;
76417;SDS011;65250;47.602;19.002;2023-07-20T14:39:54;14.60;;;13.68;;
76417;SDS011;65250;47.602;19.002;2023-07-20T14:42:21;14.85;;;13.55;;
76417;SDS011;65250;47.602;19.002;2023-07-20T14:44:48;14.13;;;13.30;;
76417;SDS011;65250;47.602;19.002;2023-07-20T14:47:17;14.50;;;13.40;;
76417;SDS011;65250;47.602;19.002;2023-07-20T14:49:45;12.95;;;12.25;;